createdAt,value
2022-12-15T06:34:43.559Z,22.88
2022-12-15T06:37:11.308Z,18.15
2022-12-15T06:39:38.906Z,21.42
2022-12-15T06:42:06.682Z,21.63
2022-12-15T06:44:34.402Z,26.48
2022-12-15T06:47:02.578Z,27.65
2022-12-15T06:49:30.542Z,28.58
2022-12-15T06:51:59.989Z,26.48
2022-12-15T06:54:28.761Z,26.95
2022-12-15T06:56:56.737Z,26.30
2022-12-15T06:59:24.711Z,27.67
2022-12-15T07:01:52.435Z,27.67
2022-12-15T07:04:20.561Z,24.67
2022-12-15T07:06:48.358Z,29.45
2022-12-15T07:09:17.403Z,26.08
2022-12-15T07:11:45.276Z,30.17
2022-12-15T07:14:13.014Z,28.30
2022-12-15T07:16:41.152Z,31.98
2022-12-15T07:19:10.570Z,25.23
2022-12-15T07:21:38.371Z,27.10
2022-12-15T07:24:07.048Z,29.40
2022-12-15T07:26:36.613Z,25.67
2022-12-15T07:29:04.377Z,29.48
2022-12-15T07:31:32.359Z,28.58
2022-12-15T07:34:00.367Z,32.97
2022-12-15T07:36:28.060Z,29.95
2022-12-15T07:38:58.157Z,36.95
2022-12-15T07:41:25.906Z,28.67
2022-12-15T07:43:55.064Z,27.35
2022-12-15T07:46:22.998Z,29.05
2022-12-15T07:48:51.201Z,32.53
2022-12-15T07:51:20.244Z,36.00
2022-12-15T07:53:48.430Z,28.27
2022-12-15T07:56:16.258Z,34.50
2022-12-15T07:58:44.028Z,26.38
2022-12-15T11:28:35.563Z,34.80
2022-12-15T11:31:22.975Z,36.35
2022-12-15T11:33:52.246Z,34.72
2022-12-15T11:36:39.321Z,35.35
2022-12-15T11:39:19.560Z,34.28
2022-12-15T11:41:56.697Z,30.80
2022-12-15T11:44:30.232Z,38.60
2022-12-15T11:47:10.006Z,34.65
2022-12-15T11:53:05.050Z,33.30
2022-12-15T11:55:44.862Z,38.60
2022-12-15T11:58:42.240Z,39.03
2022-12-15T12:01:25.338Z,40.50
2022-12-15T12:04:02.275Z,38.35
2022-12-15T12:06:37.200Z,36.97
2022-12-15T12:09:22.503Z,36.33
2022-12-15T12:11:56.585Z,38.05
2022-12-15T12:14:37.376Z,47.92
2022-12-15T12:17:11.465Z,44.93
2022-12-15T12:19:44.149Z,46.15
2022-12-15T12:22:24.618Z,53.60
2022-12-15T12:24:58.942Z,45.55
2022-12-15T12:27:33.746Z,43.95
2022-12-15T12:30:05.895Z,45.92
2022-12-15T12:32:44.021Z,48.17
2022-12-15T12:35:31.969Z,46.70
2022-12-15T12:38:04.020Z,44.20
2022-12-15T12:40:46.034Z,45.78
2022-12-15T12:43:30.946Z,49.50
2022-12-15T12:46:06.975Z,48.22
2022-12-15T12:48:41.501Z,54.10
2022-12-15T12:51:16.444Z,55.25
2022-12-15T12:53:44.234Z,44.38
2022-12-15T12:56:36.575Z,56.40
2022-12-15T12:59:06.438Z,50.67
2022-12-15T13:01:36.081Z,53.78
2022-12-15T13:04:11.516Z,54.72
2022-12-15T13:07:01.878Z,54.35
2022-12-15T13:09:43.799Z,60.17
2022-12-15T13:12:51.084Z,50.70
2022-12-15T13:15:34.234Z,54.30
2022-12-15T13:18:07.315Z,61.22
2022-12-15T13:20:38.283Z,61.10
2022-12-15T13:23:42.954Z,53.05
2022-12-15T13:26:15.123Z,48.83
2022-12-15T13:28:50.701Z,51.78
2022-12-15T13:31:43.889Z,48.42
2022-12-15T13:34:16.707Z,52.08
2022-12-15T13:36:56.811Z,48.40
2022-12-15T13:39:56.624Z,57.08
2022-12-15T13:42:53.208Z,47.92
2022-12-15T13:45:48.869Z,42.13
2022-12-15T13:48:32.942Z,44.20
2022-12-15T13:51:06.435Z,44.30
2022-12-15T13:53:43.542Z,39.80
2022-12-15T13:56:39.159Z,47.58
2022-12-15T13:59:18.799Z,47.70
2022-12-15T14:01:51.883Z,48.92
2022-12-15T14:04:21.399Z,43.30
2022-12-15T14:06:53.572Z,47.05
2022-12-15T14:09:27.841Z,44.10
2022-12-15T14:11:57.381Z,46.55
2022-12-15T14:14:27.802Z,42.50
2022-12-15T14:17:01.599Z,37.95
2022-12-15T14:19:38.762Z,41.92
2022-12-15T14:25:17.999Z,42.55
2022-12-15T14:27:50.714Z,42.28
2022-12-15T14:30:22.153Z,45.90
2022-12-15T14:33:00.019Z,44.03
2022-12-15T14:35:31.532Z,44.00
2022-12-15T14:38:02.828Z,41.92
2022-12-15T14:40:36.254Z,43.30
2022-12-15T14:45:32.906Z,39.20
2022-12-15T14:50:51.282Z,38.58
2022-12-15T14:53:21.071Z,44.67
2022-12-15T14:55:52.806Z,43.28
2022-12-15T14:58:29.838Z,48.72
2022-12-15T15:00:58.312Z,52.05
2022-12-15T15:03:34.279Z,49.72
2022-12-15T15:06:06.002Z,52.92
2022-12-15T15:08:37.017Z,48.55
2022-12-15T15:11:25.790Z,47.10
2022-12-15T15:13:56.101Z,49.25
2022-12-15T15:16:24.216Z,48.10
2022-12-15T15:18:55.247Z,46.05
2022-12-15T15:21:25.731Z,43.53
2022-12-15T15:24:01.123Z,44.45
2022-12-15T15:26:31.177Z,41.67
2022-12-15T15:28:59.150Z,45.33
2022-12-15T15:31:32.649Z,44.83
2022-12-15T15:34:04.947Z,46.70
2022-12-15T15:36:35.568Z,45.17
2022-12-15T15:39:12.954Z,48.30
2022-12-15T15:41:42.784Z,54.55
2022-12-15T15:44:13.129Z,44.42
2022-12-15T15:46:46.729Z,43.25
2022-12-15T15:49:16.806Z,56.72
2022-12-15T15:51:48.671Z,59.33
2022-12-15T15:54:20.933Z,60.25
2022-12-15T15:56:50.251Z,60.97
2022-12-15T15:59:20.747Z,71.97
2022-12-15T16:01:53.260Z,69.93
2022-12-15T16:04:21.482Z,70.07
2022-12-15T16:06:49.738Z,60.75
2022-12-15T16:09:17.674Z,54.60
2022-12-15T16:11:46.524Z,54.95
2022-12-15T16:14:18.013Z,59.22
2022-12-15T16:19:13.642Z,78.80
2022-12-15T16:21:43.033Z,56.45
2022-12-15T16:24:15.609Z,61.78
2022-12-15T16:26:48.159Z,53.58
2022-12-15T16:29:18.741Z,167.25
2022-12-15T16:31:46.920Z,151.13
2022-12-15T16:34:16.019Z,174.40
2022-12-15T16:36:44.474Z,173.32
2022-12-15T16:39:25.943Z,109.07
2022-12-15T16:41:55.591Z,91.38
2022-12-15T16:44:27.100Z,94.55
2022-12-15T16:46:55.330Z,101.35
2022-12-15T16:49:25.840Z,129.02
2022-12-15T16:51:53.964Z,109.65
2022-12-15T16:54:25.115Z,70.03
2022-12-15T16:56:53.215Z,43.40
2022-12-15T16:59:38.655Z,51.65
